Airfield :







YOU CAN JOIN US ON...

 
LOGIN :

Register | Disclaimer

   EN    FR    IT 

 









Legend :    VFR   Marginal VFR   IFR   Intensive IFR   Very Intensive IFR
Visi :
Ceiling :
>= 8 km
>= 3000ft
5 to 8 km
1000 to 3000 ft
1500m to 5 km
500 to 1000 ft
800 to 1500m
200 to 500 ft
< 800m
< 200 ft
Symbols :   Thunderstorms  Fog  Heavy snow  Heavy precipitations  Wind > 20 kt






- Airport Elevation : 63 ft
- IATA code : OYK


SBOI - Oiapoque

CURRENT METAR :
  • 302000Z 29002KT 9999 FEW025TCU SCT035 27/25 Q1010

EXPIRED METARs :
  • 301900Z 34003KT 9999 FEW025TCU SCT040 27/25 Q1010
  • 301800Z 06002KT 9999 BKN020 FEW025TCU 28/25 Q1010

TAF TAF SBOI
Valid from the 30 at 18:00 until the 01 at 06:00 UTC


301500Z 3018/0106 13007KT 7000 BKN017 FEW030TCU TX27/3018Z TN24/0106Z
PROB40 3018/3021 4000 SHRA BKN010 FEW025TCU
BECMG 3022/3024 07005KT 8000 SCT025
BECMG 0103/0105 BKN017 RMK PHN
SBAZ FIR / South America



MET'MAP, your aeronautical weather chart ! - Copyright ORBIFLY December 2007 - Disclaimer

ORBIFLY MET'MAP TEAM :

Programming & Development : Alexandra Zaïnal
Concept & original design : Baudouin d'Aumeries
Assistance for programming : Marc-Olivier Méhu
Technical & hardware support : Manuel Goepfert

Contact : metmap@orbifly.com




SOURCES & CREDITS :

   NOAA